createdAt,value
2022-08-14T00:02:27.021Z,22.20
2022-08-14T00:04:57.227Z,22.20
2022-08-14T00:07:25.502Z,22.20
2022-08-14T00:09:55.855Z,22.10
2022-08-14T00:12:33.254Z,22.00
2022-08-14T00:15:23.082Z,22.00
2022-08-14T00:17:53.084Z,22.00
2022-08-14T00:20:30.779Z,21.90
2022-08-14T00:23:14.492Z,21.90
2022-08-14T00:25:59.094Z,21.90
2022-08-14T00:28:35.534Z,21.80
2022-08-14T00:31:06.568Z,21.80
2022-08-14T00:33:51.897Z,21.80
2022-08-14T00:36:37.490Z,21.80
2022-08-14T00:39:17.969Z,21.70
2022-08-14T00:41:46.957Z,21.60
2022-08-14T00:44:21.517Z,21.60
2022-08-14T00:47:00.822Z,21.60
2022-08-14T00:49:30.068Z,21.60
2022-08-14T00:52:00.516Z,21.50
2022-08-14T00:54:28.813Z,21.50
2022-08-14T00:56:57.062Z,21.40
2022-08-14T00:59:27.543Z,21.40
2022-08-14T01:01:59.636Z,21.30
2022-08-14T01:04:38.137Z,21.20
2022-08-14T01:07:22.698Z,21.20
2022-08-14T01:09:50.530Z,21.10
2022-08-14T01:12:26.554Z,21.10
2022-08-14T01:14:58.266Z,21.10
2022-08-14T01:17:49.534Z,21.10
2022-08-14T01:20:39.568Z,21.10
2022-08-14T01:23:16.104Z,21.10
2022-08-14T01:25:49.103Z,21.00
2022-08-14T01:28:34.229Z,21.00
2022-08-14T01:31:09.823Z,21.00
2022-08-14T01:34:00.035Z,21.00
2022-08-14T01:36:36.864Z,21.00
2022-08-14T01:39:09.703Z,20.90
2022-08-14T01:41:43.382Z,20.90
2022-08-14T01:44:33.290Z,20.90
2022-08-14T01:47:05.897Z,20.80
2022-08-14T01:49:35.475Z,20.80
2022-08-14T01:52:33.533Z,20.90
2022-08-14T01:55:03.690Z,20.80
2022-08-14T01:58:01.907Z,20.80
2022-08-14T02:00:27.769Z,20.80
2022-08-14T02:02:57.089Z,20.80
2022-08-14T02:05:29.517Z,20.80
2022-08-14T02:08:08.825Z,20.80
2022-08-14T02:10:47.230Z,20.70
2022-08-14T02:13:19.059Z,20.70
2022-08-14T02:15:48.607Z,20.70
2022-08-14T02:18:18.528Z,20.60
2022-08-14T02:20:48.834Z,20.60
2022-08-14T02:23:28.858Z,20.60
2022-08-14T02:26:24.732Z,20.60
2022-08-14T02:28:58.225Z,20.50
2022-08-14T02:31:42.310Z,20.50
2022-08-14T02:34:21.991Z,20.50
2022-08-14T02:37:06.228Z,20.50
2022-08-14T02:39:37.761Z,20.50
2022-08-14T02:42:13.373Z,20.50
2022-08-14T02:44:49.266Z,20.50
2022-08-14T02:47:20.849Z,20.50
2022-08-14T02:49:50.541Z,20.40
2022-08-14T02:52:26.696Z,20.40
2022-08-14T02:55:11.993Z,20.40
2022-08-14T02:57:58.194Z,20.40
2022-08-14T03:00:39.722Z,20.40
2022-08-14T03:03:08.696Z,20.40
2022-08-14T03:05:41.676Z,20.30
2022-08-14T03:08:11.833Z,20.30
2022-08-14T03:10:48.888Z,20.30
2022-08-14T03:13:21.114Z,20.20
2022-08-14T03:15:55.161Z,20.10
2022-08-14T03:18:30.704Z,20.20
2022-08-14T03:21:03.821Z,20.10
2022-08-14T03:23:36.335Z,20.10
2022-08-14T03:26:08.683Z,20.10
2022-08-14T03:28:43.716Z,20.00
2022-08-14T03:31:13.024Z,20.00
2022-08-14T03:33:43.349Z,20.00
2022-08-14T03:37:39.071Z,20.00
2022-08-14T03:39:14.737Z,20.00
2022-08-14T03:41:51.193Z,20.00
2022-08-14T03:45:19.433Z,20.00
2022-08-14T03:47:11.834Z,19.90
2022-08-14T03:49:42.310Z,19.90
2022-08-14T03:52:17.923Z,19.90
2022-08-14T03:55:00.599Z,19.90
2022-08-14T03:57:33.983Z,19.90
2022-08-14T04:00:13.995Z,19.80
2022-08-14T04:02:59.368Z,19.80
2022-08-14T04:05:27.640Z,19.80
2022-08-14T04:08:08.387Z,19.80
2022-08-14T04:10:46.395Z,19.80
2022-08-14T04:13:18.223Z,19.80
2022-08-14T04:15:56.063Z,19.80
2022-08-14T04:18:29.847Z,19.80
2022-08-14T04:20:58.685Z,19.70
2022-08-14T04:23:30.353Z,19.70
2022-08-14T04:26:02.055Z,19.70
2022-08-14T04:29:06.767Z,19.70
2022-08-14T04:31:25.084Z,19.70
2022-08-14T04:34:17.093Z,19.70
2022-08-14T04:37:08.337Z,19.70
2022-08-14T04:39:57.168Z,19.70
2022-08-14T04:42:47.293Z,19.80
2022-08-14T04:45:21.131Z,19.70
2022-08-14T04:48:10.094Z,19.80
2022-08-14T04:50:45.122Z,19.80
2022-08-14T04:53:16.529Z,19.80
2022-08-14T04:55:51.455Z,19.90
2022-08-14T04:58:32.773Z,19.90
2022-08-14T05:01:02.496Z,19.90
2022-08-14T05:03:34.376Z,19.90
2022-08-14T05:06:38.996Z,19.90
2022-08-14T05:09:00.229Z,20.00
2022-08-14T05:11:34.645Z,20.10
2022-08-14T05:14:17.109Z,20.10
2022-08-14T05:16:53.787Z,20.20
2022-08-14T05:19:28.950Z,20.20
2022-08-14T05:22:17.444Z,20.30
2022-08-14T05:24:49.727Z,20.40
2022-08-14T05:27:23.092Z,20.40
2022-08-14T05:29:55.363Z,20.50
2022-08-14T05:32:27.212Z,20.60
2022-08-14T05:34:59.196Z,20.60
2022-08-14T05:37:29.814Z,20.70
2022-08-14T05:40:00.449Z,20.80
2022-08-14T05:42:38.361Z,20.90
2022-08-14T05:45:11.031Z,21.00
2022-08-14T05:47:42.921Z,21.00
2022-08-14T05:50:19.294Z,21.10
2022-08-14T05:52:51.155Z,21.20
2022-08-14T05:55:21.917Z,21.30
2022-08-14T05:57:53.326Z,21.40
2022-08-14T06:00:29.038Z,21.50
2022-08-14T06:03:00.114Z,21.50
2022-08-14T06:05:30.197Z,21.70
2022-08-14T06:07:59.499Z,21.80
2022-08-14T06:10:29.430Z,21.90
2022-08-14T06:12:58.693Z,21.90
2022-08-14T06:15:30.673Z,22.00
2022-08-14T06:18:00.356Z,22.00
2022-08-14T06:20:31.271Z,22.00
2022-08-14T06:23:02.250Z,22.10
2022-08-14T06:25:30.416Z,22.20
2022-08-14T06:28:02.077Z,22.20
2022-08-14T06:30:46.487Z,22.30
2022-08-14T06:33:18.022Z,22.30
2022-08-14T06:35:48.464Z,22.30
2022-08-14T06:38:19.543Z,22.30
2022-08-14T06:40:50.142Z,22.30
2022-08-14T06:43:20.147Z,22.20
2022-08-14T06:45:54.507Z,22.30
2022-08-14T06:48:25.984Z,22.40
2022-08-14T06:50:57.963Z,22.40
2022-08-14T06:53:28.216Z,22.50
2022-08-14T06:56:02.048Z,22.50
2022-08-14T06:58:32.125Z,22.50
2022-08-14T07:01:24.807Z,22.60
2022-08-14T07:04:22.729Z,22.60
2022-08-14T07:06:55.574Z,22.60
2022-08-14T07:09:27.956Z,22.60
2022-08-14T07:11:56.471Z,22.60
2022-08-14T07:14:26.401Z,22.60
2022-08-14T07:16:54.660Z,22.70
2022-08-14T07:19:23.742Z,22.80
2022-08-14T07:21:53.243Z,22.80
2022-08-14T07:24:21.899Z,22.90
2022-08-14T07:26:54.278Z,22.90
2022-08-14T07:29:26.260Z,23.00
2022-08-14T07:31:54.548Z,23.10
2022-08-14T07:34:36.299Z,23.20
2022-08-14T07:37:11.063Z,23.30
2022-08-14T07:39:39.202Z,23.40
2022-08-14T07:42:11.602Z,23.50
2022-08-14T07:44:45.784Z,23.60
2022-08-14T07:47:16.584Z,23.80
2022-08-14T07:49:55.385Z,23.90
2022-08-14T07:52:30.263Z,24.00
2022-08-14T07:54:59.424Z,24.10
2022-08-14T07:57:28.249Z,24.20
2022-08-14T07:59:56.465Z,24.20
2022-08-14T08:02:34.765Z,24.40
2022-08-14T08:05:04.182Z,24.40
2022-08-14T08:07:34.270Z,24.50
2022-08-14T08:10:46.371Z,24.70
2022-08-14T08:13:15.412Z,24.70
2022-08-14T08:15:45.090Z,24.90
2022-08-14T08:18:27.391Z,25.00
2022-08-14T08:20:59.632Z,24.90
2022-08-14T08:23:40.591Z,24.90
2022-08-14T08:26:11.943Z,25.00
2022-08-14T08:28:43.654Z,25.20
2022-08-14T08:31:12.650Z,25.30
2022-08-14T08:33:44.938Z,25.50
2022-08-14T08:36:18.737Z,25.60
2022-08-14T08:39:18.147Z,25.80
2022-08-14T08:41:43.294Z,25.90
2022-08-14T08:44:17.243Z,25.80
2022-08-14T08:47:01.636Z,26.00
2022-08-14T08:49:41.997Z,26.00
2022-08-14T08:52:15.266Z,26.00
2022-08-14T08:54:56.237Z,26.10
2022-08-14T08:57:24.472Z,26.30
2022-08-14T08:59:54.831Z,26.50
2022-08-14T09:02:26.075Z,26.60
2022-08-14T09:05:03.782Z,26.60
2022-08-14T09:07:32.005Z,26.60
2022-08-14T09:10:02.470Z,26.60
2022-08-14T09:12:34.101Z,26.80
2022-08-14T09:15:03.574Z,27.10
2022-08-14T09:17:37.526Z,27.20
2022-08-14T09:20:11.641Z,27.20
2022-08-14T09:22:47.443Z,27.20
2022-08-14T09:25:19.558Z,27.30
2022-08-14T09:27:48.674Z,27.50
2022-08-14T09:30:33.197Z,27.70
2022-08-14T09:33:56.138Z,28.00
2022-08-14T09:36:49.899Z,28.10
2022-08-14T09:39:32.500Z,28.20
2022-08-14T09:42:32.825Z,28.10
2022-08-14T09:45:11.752Z,28.30
2022-08-14T09:47:45.502Z,28.40
2022-08-14T09:50:29.906Z,28.40
2022-08-14T09:53:00.424Z,28.30
2022-08-14T09:55:41.260Z,28.40
2022-08-14T09:58:22.515Z,28.40
2022-08-14T10:00:54.034Z,28.80
2022-08-14T10:03:34.522Z,29.10
2022-08-14T10:06:12.032Z,29.10
2022-08-14T10:08:51.279Z,29.20
2022-08-14T10:11:23.868Z,29.40
2022-08-14T10:13:56.946Z,29.60
2022-08-14T10:16:30.413Z,29.80
2022-08-14T10:19:10.680Z,29.60
2022-08-14T10:21:58.465Z,29.10
2022-08-14T10:24:37.385Z,29.20
2022-08-14T10:27:06.519Z,29.30
2022-08-14T10:29:39.396Z,29.50
2022-08-14T10:32:17.604Z,29.60
2022-08-14T10:35:06.257Z,29.90
2022-08-14T10:37:40.221Z,29.80
2022-08-14T10:40:37.014Z,29.70
2022-08-14T10:42:58.010Z,30.00
2022-08-14T10:45:35.826Z,30.20
2022-08-14T10:48:24.410Z,30.40
2022-08-14T10:51:08.346Z,30.60
2022-08-14T10:53:40.100Z,31.10
2022-08-14T10:56:21.363Z,31.50
2022-08-14T10:59:03.342Z,31.50
2022-08-14T11:01:41.569Z,31.20
2022-08-14T11:04:30.438Z,30.80
2022-08-14T11:07:00.402Z,30.90
2022-08-14T11:09:31.778Z,31.40
2022-08-14T11:12:34.295Z,31.60
2022-08-14T11:15:02.480Z,31.50
2022-08-14T11:17:33.079Z,32.00
2022-08-14T11:20:02.951Z,32.20
2022-08-14T11:22:56.370Z,32.50
2022-08-14T11:25:23.755Z,32.90
2022-08-14T11:27:54.987Z,33.10
2022-08-14T11:30:49.307Z,33.20
2022-08-14T11:33:16.364Z,33.50
2022-08-14T11:35:49.876Z,33.20
2022-08-14T11:38:20.106Z,32.90
2022-08-14T11:40:49.120Z,32.50
2022-08-14T11:43:18.390Z,32.50
2022-08-14T11:45:52.114Z,32.60
2022-08-14T11:49:03.015Z,32.20
2022-08-14T11:51:24.002Z,32.10
2022-08-14T11:53:54.766Z,32.20
2022-08-14T11:56:25.240Z,32.10
2022-08-14T11:58:55.428Z,31.80
2022-08-14T12:01:30.998Z,31.20
2022-08-14T12:04:31.689Z,31.10
2022-08-14T12:07:01.341Z,31.20
2022-08-14T12:09:31.503Z,31.50
2022-08-14T12:11:59.852Z,31.90
2022-08-14T12:14:34.886Z,32.40
2022-08-14T12:17:11.823Z,32.90
2022-08-14T12:19:54.081Z,33.10
2022-08-14T12:22:35.778Z,33.00
2022-08-14T12:25:11.054Z,33.00
2022-08-14T12:27:52.001Z,33.00
2022-08-14T12:30:39.541Z,32.80
2022-08-14T12:33:23.931Z,32.50
2022-08-14T12:35:57.603Z,32.30
2022-08-14T12:38:45.914Z,32.50
2022-08-14T12:41:21.383Z,32.60
2022-08-14T12:43:51.735Z,32.60
2022-08-14T12:46:28.804Z,32.70
2022-08-14T12:48:58.810Z,32.50
2022-08-14T12:51:30.617Z,31.90
2022-08-14T12:54:00.096Z,32.30
2022-08-14T12:56:33.431Z,32.30
2022-08-14T12:59:03.736Z,32.20
2022-08-14T13:01:59.493Z,32.10
2022-08-14T13:04:23.301Z,32.20
2022-08-14T13:06:53.914Z,32.00
2022-08-14T13:09:36.391Z,32.30
2022-08-14T13:12:32.191Z,32.50
2022-08-14T13:14:58.784Z,32.50
2022-08-14T13:17:27.362Z,32.70
2022-08-14T13:20:01.418Z,33.00
2022-08-14T13:22:33.233Z,33.10
2022-08-14T13:25:07.763Z,33.10
2022-08-14T13:27:39.211Z,32.90
2022-08-14T13:30:14.525Z,32.80
2022-08-14T13:32:53.261Z,32.80
2022-08-14T13:35:22.461Z,32.90
2022-08-14T13:37:53.768Z,32.80
2022-08-14T13:40:26.721Z,33.00
2022-08-14T13:42:57.322Z,33.40
2022-08-14T13:45:56.441Z,33.60
2022-08-14T13:48:27.351Z,34.00
2022-08-14T13:51:01.956Z,33.80
2022-08-14T13:53:38.210Z,34.00
2022-08-14T13:56:14.684Z,34.30
2022-08-14T13:58:47.111Z,34.50
2022-08-14T14:01:19.012Z,34.80
2022-08-14T14:03:50.145Z,34.50
2022-08-14T14:06:21.461Z,34.20
2022-08-14T14:08:55.989Z,34.00
2022-08-14T14:11:30.135Z,34.50
2022-08-14T14:14:00.435Z,34.70
2022-08-14T14:16:30.930Z,34.30
2022-08-14T14:19:09.180Z,34.10
2022-08-14T14:21:40.422Z,33.40
2022-08-14T14:24:11.748Z,32.80
2022-08-14T14:26:46.525Z,32.80
2022-08-14T14:29:16.898Z,32.60
2022-08-14T14:31:48.421Z,32.50
2022-08-14T14:34:20.086Z,32.60
2022-08-14T14:37:02.876Z,32.70
2022-08-14T14:39:37.451Z,32.70
2022-08-14T14:42:32.259Z,33.00
2022-08-14T14:45:07.644Z,33.40
2022-08-14T14:47:37.428Z,33.40
2022-08-14T14:50:06.607Z,33.10
2022-08-14T14:52:37.161Z,33.50
2022-08-14T14:55:12.640Z,33.90
2022-08-14T14:57:46.064Z,33.90
2022-08-14T15:00:21.442Z,33.70
2022-08-14T15:02:51.549Z,33.60
2022-08-14T15:05:20.714Z,33.40
2022-08-14T15:07:52.819Z,33.50
2022-08-14T15:10:27.637Z,33.70
2022-08-14T15:13:03.414Z,33.70
2022-08-14T15:15:33.309Z,34.00
2022-08-14T15:18:09.871Z,34.50
2022-08-14T15:20:56.221Z,35.00
2022-08-14T15:23:25.518Z,35.30
2022-08-14T15:26:24.531Z,35.00
2022-08-14T15:29:03.141Z,35.00
2022-08-14T15:31:36.239Z,35.30
2022-08-14T15:34:41.028Z,35.00
2022-08-14T15:37:03.429Z,34.50
2022-08-14T15:39:35.359Z,34.30
2022-08-14T15:42:14.623Z,34.30
2022-08-14T15:44:58.573Z,34.40
2022-08-14T15:47:30.840Z,33.80
2022-08-14T15:50:00.207Z,33.60
2022-08-14T15:52:32.774Z,33.70
2022-08-14T15:55:05.776Z,33.90
2022-08-14T15:57:36.711Z,34.00
2022-08-14T16:00:43.519Z,33.70
2022-08-14T16:03:15.640Z,34.00
2022-08-14T16:05:45.842Z,33.90
2022-08-14T16:08:29.066Z,33.70
2022-08-14T16:10:59.083Z,33.50
2022-08-14T16:13:38.913Z,33.40
2022-08-14T16:16:35.036Z,33.20
2022-08-14T16:18:59.611Z,32.90
2022-08-14T16:21:31.422Z,32.60
2022-08-14T16:24:01.385Z,32.30
2022-08-14T16:26:30.083Z,31.90
2022-08-14T16:29:07.588Z,31.70
2022-08-14T16:31:37.452Z,31.40
2022-08-14T16:34:45.863Z,31.30
2022-08-14T16:36:57.178Z,31.40
2022-08-14T16:39:25.669Z,31.40
2022-08-14T16:41:59.658Z,31.50
2022-08-14T16:44:36.394Z,31.60
2022-08-14T16:47:06.532Z,31.50
2022-08-14T16:50:04.370Z,31.30
2022-08-14T16:52:25.524Z,31.10
2022-08-14T16:55:14.265Z,30.90
2022-08-14T16:57:50.081Z,30.70
2022-08-14T17:00:43.457Z,30.60
2022-08-14T17:03:14.634Z,30.60
2022-08-14T17:05:46.937Z,30.60
2022-08-14T17:08:41.991Z,30.60
2022-08-14T17:11:11.052Z,30.50
2022-08-14T17:13:57.784Z,30.30
2022-08-14T17:16:35.690Z,30.10
2022-08-14T17:19:05.899Z,30.10
2022-08-14T17:21:42.606Z,29.90
2022-08-14T17:24:56.837Z,30.00
2022-08-14T17:27:07.871Z,30.20
2022-08-14T17:35:57.453Z,30.30
2022-08-14T17:38:38.772Z,30.40
2022-08-14T17:44:20.216Z,30.50
2022-08-14T17:46:55.251Z,30.60
2022-08-14T17:49:32.024Z,30.50
2022-08-14T17:52:16.818Z,30.50
2022-08-14T17:54:52.753Z,30.60
2022-08-14T17:57:28.569Z,30.50
2022-08-14T17:59:59.059Z,30.50
2022-08-14T18:02:31.294Z,30.40
2022-08-14T18:05:03.066Z,30.30
2022-08-14T18:07:59.508Z,30.30
2022-08-14T18:10:31.896Z,30.10
2022-08-14T18:13:10.538Z,29.90
2022-08-14T18:15:41.271Z,29.80
2022-08-14T18:18:11.813Z,29.80
2022-08-14T18:21:42.924Z,29.70
2022-08-14T18:23:31.658Z,29.60
2022-08-14T18:26:00.615Z,29.50
2022-08-14T18:28:50.938Z,29.40
2022-08-14T18:31:42.374Z,29.30
2022-08-14T18:34:30.656Z,29.20
2022-08-14T18:37:17.195Z,29.10
2022-08-14T18:40:01.282Z,28.90
2022-08-14T18:42:45.825Z,28.80
2022-08-14T18:45:18.969Z,28.70
2022-08-14T18:48:33.327Z,28.60
2022-08-14T18:51:45.232Z,28.50
2022-08-14T18:54:29.689Z,28.40
2022-08-14T18:57:02.457Z,28.30
2022-08-14T18:59:35.727Z,28.20
2022-08-14T19:02:42.639Z,28.20
2022-08-14T19:05:11.659Z,28.10
2022-08-14T19:07:40.872Z,28.00
2022-08-14T19:10:16.759Z,28.00
2022-08-14T19:13:13.083Z,27.90
2022-08-14T19:15:43.943Z,27.80
2022-08-14T19:18:28.185Z,27.70
2022-08-14T19:21:00.555Z,27.70
2022-08-14T19:23:42.256Z,27.60
2022-08-14T19:26:35.462Z,27.50
2022-08-14T19:29:24.004Z,27.40
2022-08-14T19:31:55.742Z,27.40
2022-08-14T19:34:37.914Z,27.30
2022-08-14T19:37:10.195Z,27.20
2022-08-14T19:39:54.071Z,27.10
2022-08-14T19:42:28.553Z,27.00
2022-08-14T19:44:59.189Z,26.90
2022-08-14T19:47:38.565Z,26.90
2022-08-14T19:50:37.748Z,26.80
2022-08-14T19:53:11.317Z,26.80
2022-08-14T19:55:45.941Z,26.70
2022-08-14T19:58:30.258Z,26.60
2022-08-14T20:01:08.710Z,26.50
2022-08-14T20:03:59.790Z,26.50
2022-08-14T20:06:37.181Z,26.40
2022-08-14T20:11:05.015Z,26.40
2022-08-14T20:12:04.951Z,26.30
2022-08-14T20:14:37.718Z,26.30
2022-08-14T20:17:08.298Z,26.20
2022-08-14T20:19:37.965Z,26.20
2022-08-14T20:22:37.017Z,26.10
2022-08-14T20:25:12.488Z,26.10
2022-08-14T20:27:45.944Z,26.00
2022-08-14T20:30:37.609Z,26.00
2022-08-14T20:33:10.960Z,26.00
2022-08-14T20:35:44.240Z,25.90
2022-08-14T20:38:31.006Z,25.90
2022-08-14T20:41:05.552Z,25.90
2022-08-14T20:43:53.513Z,25.80
2022-08-14T20:46:29.571Z,25.80
2022-08-14T20:49:01.260Z,25.70
2022-08-14T20:51:37.882Z,25.70
2022-08-14T20:54:14.591Z,25.70
2022-08-14T20:56:45.952Z,25.60
2022-08-14T20:59:17.848Z,25.60
2022-08-14T21:01:51.861Z,25.60
2022-08-14T21:04:27.357Z,25.50
2022-08-14T21:07:24.986Z,25.50
2022-08-14T21:10:06.360Z,25.50
2022-08-14T21:12:37.226Z,25.50
2022-08-14T21:15:25.680Z,25.40
2022-08-14T21:18:01.761Z,25.40
2022-08-14T21:20:30.330Z,25.40
2022-08-14T21:23:01.773Z,25.40
2022-08-14T21:25:32.195Z,25.20
2022-08-14T21:28:04.906Z,25.00
2022-08-14T21:30:51.889Z,25.00
2022-08-14T21:33:23.727Z,25.00
2022-08-14T21:35:55.587Z,25.00
2022-08-14T21:38:33.893Z,24.90
2022-08-14T21:41:42.735Z,25.00
2022-08-14T21:44:18.107Z,24.90
2022-08-14T21:46:53.498Z,24.90
2022-08-14T21:49:25.710Z,24.90
2022-08-14T21:52:52.198Z,24.80
2022-08-14T21:54:53.628Z,24.90
2022-08-14T21:57:56.021Z,24.80
2022-08-14T22:00:32.446Z,24.80
2022-08-14T22:03:09.210Z,24.70
2022-08-14T22:05:41.764Z,24.70
2022-08-14T22:08:13.875Z,24.70
2022-08-14T22:10:44.698Z,24.70
2022-08-14T22:13:15.916Z,24.70
2022-08-14T22:15:49.773Z,24.70
2022-08-14T22:18:20.534Z,24.80
2022-08-14T22:20:53.908Z,24.80
2022-08-14T22:23:25.879Z,24.90
2022-08-14T22:25:55.176Z,24.90
2022-08-14T22:28:25.626Z,24.90
2022-08-14T22:30:55.161Z,25.00
2022-08-14T22:33:30.810Z,25.00
2022-08-14T22:36:01.412Z,25.00
2022-08-14T22:38:35.587Z,25.00
2022-08-14T22:41:25.275Z,24.90
2022-08-14T22:43:59.295Z,24.80
2022-08-14T22:46:28.119Z,24.30
2022-08-14T22:48:57.542Z,23.80
2022-08-14T22:51:28.177Z,23.60
2022-08-14T22:53:58.662Z,23.30
2022-08-14T22:56:30.227Z,23.30
2022-08-14T22:59:00.673Z,23.30
2022-08-14T23:01:55.837Z,23.20
2022-08-14T23:04:35.498Z,23.20
2022-08-14T23:07:14.449Z,23.20
2022-08-14T23:09:55.907Z,23.30
2022-08-14T23:12:29.261Z,23.40
2022-08-14T23:15:00.274Z,23.40
2022-08-14T23:17:39.072Z,23.50
2022-08-14T23:20:18.735Z,23.50
2022-08-14T23:22:52.355Z,23.50
2022-08-14T23:25:57.814Z,23.40
2022-08-14T23:28:33.836Z,23.40
2022-08-14T23:31:08.532Z,23.40
2022-08-14T23:33:45.905Z,23.40
2022-08-14T23:36:31.964Z,23.40
2022-08-14T23:39:10.236Z,23.50
2022-08-14T23:41:47.032Z,23.50
2022-08-14T23:44:23.774Z,23.60
2022-08-14T23:46:56.720Z,23.60
2022-08-14T23:49:28.694Z,23.70
2022-08-14T23:52:51.309Z,23.80
2022-08-14T23:55:11.070Z,23.80
2022-08-14T23:57:44.199Z,23.80
